Flight Track Log - Related Links

Times and Time Zones

All times are in EDT time to prevent confusion due to time zone crossing. See the VRD416 flight status page for this flight to view local times or setup timezone preferences in your user account.

Time Position Orientation Groundspeed Altitude Reporting Facility
EDT Latitude Longitude Course Direction KTS MPH feet Rate Location/Type
Sun 07:19:04 PM 33.9470 -118.4370 262° West 160 184 800  Level FlightAware ADS-B
Sun 07:19:20 PM 33.9450 -118.4510 260° West 162 186 1,400 1,737 Climbing FlightAware ADS-B
Sun 07:19:42 PM 33.9440 -118.4730 267° West 185 213 1,900 964 Climbing FlightAware ADS-B
Sun 07:20:16 PM 33.9410 -118.5120 265° West 228 262 2,300 783 Climbing FlightAware ADS-B
Sun 07:20:28 PM 33.9400 -118.5280 266° West 238 274 2,500 1,650 Climbing FlightAware ADS-B
Sun 07:20:56 PM 33.9360 -118.5690 263° West 268 308 3,400 2,036 Climbing FlightAware ADS-B
Sun 07:21:24 PM 33.9310 -118.6120 262° West 275 316 4,400 2,550 Climbing FlightAware ADS-B
Sun 07:21:36 PM 33.9230 -118.6270 237° Southwest 267 307 5,100 3,600 Climbing FlightAware ADS-B
Sun 07:21:44 PM 33.9170 -118.6340 224° Southwest 260 299 5,600 3,273 Climbing FlightAware ADS-B
Sun 07:21:58 PM 33.9020 -118.6450 211° Southwest 253 291 6,300 2,538 Climbing FlightAware ADS-B
Sun 07:22:10 PM 33.8900 -118.6480 192° South 254 292 6,700 1,857 Climbing FlightAware ADS-B
Sun 07:22:40 PM 33.8580 -118.6270 151° Southeast 267 307 7,600 1,909 Climbing FlightAware ADS-B
Sun 07:22:54 PM 33.8520 -118.6090 112° Southeast 269 310 8,100 1,650 Climbing FlightAware ADS-B
Sun 07:23:20 PM 33.8580 -118.5710 79° East 285 328 8,700 1,412 Climbing FlightAware ADS-B
Sun 07:23:45 PM 33.8780 -118.5370 55° Northeast 297 342 9,300 1,688 Climbing FlightAware ADS-B
Sun 07:24:24 PM 33.9070 -118.4820 58° Northeast 306 352 10,500 1,765 Climbing FlightAware ADS-B
Sun 07:25:10 PM 33.9440 -118.4120 57° Northeast 325 374 11,800 1,535 Climbing FlightAware ADS-B
Sun 07:25:50 PM 33.9790 -118.3510 55° Northeast 343 395 12,700 1,357 Climbing FlightAware ADS-B
Sun 07:26:34 PM 34.0200 -118.2800 55° Northeast 362 417 13,700 1,286 Climbing FlightAware ADS-B
Sun 07:27:14 PM 34.0600 -118.2100 55° Northeast 379 436 14,500 1,429 Climbing FlightAware ADS-B
Sun 07:27:58 PM 34.1040 -118.1330 55° Northeast 386 444 15,700 1,500 Climbing FlightAware ADS-B
Sun 07:28:38 PM 34.1440 -118.0600 56° Northeast 396 456 16,600 1,421 Climbing FlightAware ADS-B
Sun 07:29:14 PM 34.1810 -117.9950 55° Northeast 402 463 17,500 1,500 Climbing FlightAware ADS-B
Sun 07:29:58 PM 34.2280 -117.9120 56° Northeast 409 471 18,600 1,357 Climbing FlightAware ADS-B
Sun 07:30:38 PM 34.2710 -117.8350 56° Northeast 418 481 19,400 1,286 Climbing FlightAware ADS-B
Sun 07:31:22 PM 34.3190 -117.7490 56° Northeast 424 488 20,400 1,286 Climbing FlightAware ADS-B
Sun 07:32:02 PM 34.3640 -117.6680 56° Northeast 432 497 21,200 1,286 Climbing FlightAware ADS-B
Sun 07:32:46 PM 34.4120 -117.5840 55° Northeast 437 503 22,200 1,214 Climbing FlightAware ADS-B
Sun 07:33:26 PM 34.4580 -117.5000 56° Northeast 444 511 22,900 1,125 Climbing FlightAware ADS-B
Sun 07:34:06 PM 34.5050 -117.4160 56° Northeast 448 516 23,700 1,610 Climbing FlightAware ADS-B
Sun 07:34:48 PM 34.5530 -117.3290 56° Northeast 437 503 25,100 1,862 Climbing FlightAware ADS-B
Sun 07:35:33 PM 34.6010 -117.2410 56° Northeast 425 489 26,400 1,429 Climbing FlightAware ADS-B
Sun 07:36:12 PM 34.6450 -117.1610 56° Northeast 432 497 27,100 867 Climbing FlightAware ADS-B
Sun 07:36:56 PM 34.6940 -117.0720 56° Northeast 442 509 27,600 732 Climbing FlightAware ADS-B
Sun 07:37:34 PM 34.7380 -116.9920 56° Northeast 450 518 28,100 698 Climbing FlightAware ADS-B
Sun 07:38:22 PM 34.7940 -116.8900 56° Northeast 459 528 28,600 698 Climbing FlightAware ADS-B
Sun 07:39:00 PM 34.8380 -116.8090 56° Northeast 464 534 29,100 675 Climbing FlightAware ADS-B
Sun 07:39:42 PM 34.8870 -116.7190 56° Northeast 469 540 29,500 659 Climbing FlightAware ADS-B
Sun 07:40:22 PM 34.9330 -116.6330 57° Northeast 475 547 30,000 711 Climbing FlightAware ADS-B
Sun 07:40:58 PM 34.9850 -116.5500 53° Northeast 478 550 30,400 684 Climbing FlightAware ADS-B
Sun 07:41:41 PM 35.0510 -116.4690 45° Northeast 481 554 30,900 847 Climbing FlightAware ADS-B
Sun 07:42:23 PM 35.1170 -116.3860 46° Northeast 480 552 31,600 825 Climbing FlightAware ADS-B
Sun 07:43:01 PM 35.1770 -116.3110 46° Northeast 482 555 32,000 900 Climbing FlightAware ADS-B
Sun 07:43:43 PM 35.2420 -116.2300 45° Northeast 475 547 32,800 951 Climbing FlightAware ADS-B
Sun 07:44:23 PM 35.3020 -116.1540 46° Northeast 477 549 33,300 741 Climbing FlightAware ADS-B
Sun 07:45:04 PM 35.3640 -116.0750 46° Northeast 473 544 33,800 723 Climbing FlightAware ADS-B
Sun 07:45:46 PM 35.4290 -115.9940 45° Northeast 474 545 34,300 750 Climbing FlightAware ADS-B
Sun 07:46:32 PM 35.4980 -115.9060 46° Northeast 472 543 34,900 488 Climbing FlightAware ADS-B
Sun 07:47:12 PM 35.5590 -115.8280 46° Northeast 471 542 35,000 80 Climbing FlightAware ADS-B
Sun 07:47:47 PM 35.6120 -115.7620 45° Northeast 469 540 35,000  Level FlightAware ADS-B
Sun 07:48:28 PM 35.6750 -115.6810 46° Northeast 472 543 35,000  Level FlightAware ADS-B
Sun 07:49:12 PM 35.7400 -115.5970 46° Northeast 471 542 35,000  Level FlightAware ADS-B
Sun 07:49:42 PM 35.7860 -115.5390 46° Northeast 471 542 35,000  Level FlightAware ADS-B
Sun 07:50:27 PM 35.8540 -115.4510 46° Northeast 472 543 35,000  Level FlightAware ADS-B
Sun 07:51:12 PM 35.9210 -115.3650 46° Northeast 475 547 35,000  Level FlightAware ADS-B
Sun 07:51:44 PM 35.9710 -115.3010 46° Northeast 475 547 35,000  Level FlightAware ADS-B
Sun 07:52:27 PM 36.0340 -115.2190 46° Northeast 479 551 35,000  Level FlightAware ADS-B
Sun 07:53:10 PM 36.0830 -115.1150 60° Northeast 482 555 35,000  Level FlightAware ADS-B
Sun 07:53:50 PM 36.1250 -115.0200 61° Northeast 483 556 35,000  Level FlightAware ADS-B
Sun 07:54:33 PM 36.1700 -114.9160 62° Northeast 485 558 35,000  Level FlightAware ADS-B
Sun 07:55:13 PM 36.2150 -114.8140 61° Northeast 484 557 35,000  Level FlightAware ADS-B
Sun 07:55:57 PM 36.2610 -114.7080 62° Northeast 484 557 35,000  Level FlightAware ADS-B
Sun 07:56:37 PM 36.3040 -114.6090 62° Northeast 486 559 35,000  Level FlightAware ADS-B
Sun 07:57:13 PM 36.3420 -114.5210 62° Northeast 488 562 35,000  Level FlightAware ADS-B
Sun 07:57:57 PM 36.3890 -114.4130 62° Northeast 488 562 35,000  Level FlightAware ADS-B
Sun 07:58:36 PM 36.4300 -114.3170 62° Northeast 489 563 35,000  Level FlightAware ADS-B
Sun 07:59:21 PM 36.4780 -114.2030 62° Northeast 491 565 35,000  Level FlightAware ADS-B
Sun 08:00:01 PM 36.5200 -114.1050 62° Northeast 492 566 35,000  Level FlightAware ADS-B
Sun 08:00:45 PM 36.5660 -113.9960 62° Northeast 493 567 35,000  Level FlightAware ADS-B
Sun 08:01:26 PM 36.6110 -113.8900 62° Northeast 494 568 35,000  Level FlightAware ADS-B
Sun 08:02:02 PM 36.6470 -113.8010 63° Northeast 492 566 35,000 79 Level FlightAware ADS-B
Sun 08:02:42 PM 36.6800 -113.6930 69° East 489 563 35,100 77 Climbing FlightAware ADS-B
Sun 08:03:20 PM 36.7090 -113.5930 70° East 483 556 35,100 -70 Level FlightAware ADS-B
Sun 08:04:08 PM 36.7460 -113.4700 69° East 476 548 35,000 -68 Descending FlightAware ADS-B
Sun 08:04:48 PM 36.7760 -113.3690 70° East 474 545 35,000  Level FlightAware ADS-B
Sun 08:05:32 PM 36.8100 -113.2550 70° East 477 549 35,000  Level FlightAware ADS-B
Sun 08:06:11 PM 36.8410 -113.1540 69° East 481 554 35,000  Level FlightAware ADS-B
Sun 08:06:57 PM 36.8770 -113.0340 69° East 483 556 35,000  Level FlightAware ADS-B
Sun 08:07:37 PM 36.9080 -112.9300 70° East 484 557 35,000  Level FlightAware ADS-B
Sun 08:08:18 PM 36.9330 -112.8240 74° East 483 556 35,000 73 Level FlightAware ADS-B
Sun 08:08:59 PM 36.9550 -112.7120 76° East 481 554 35,100  Climbing FlightAware ADS-B
Sun 08:09:42 PM 36.9750 -112.5980 78° East 480 552 35,000 -74 Descending FlightAware ADS-B
Sun 08:10:20 PM 36.9770 -112.4870 89° East 476 548 35,000  Level FlightAware ADS-B
Sun 08:11:02 PM 36.9740 -112.3740 92° East 469 540 35,000  Level FlightAware ADS-B
Sun 08:11:46 PM 36.9650 -112.2560 95° East 467 537 35,000  Level FlightAware ADS-B
Sun 08:12:14 PM 36.9590 -112.1790 96° East 468 539 35,000  Level FlightAware ADS-B
Sun 08:12:57 PM 36.9510 -112.0730 95° East 470 541 35,000  Level FlightAware ADS-B
Sun 08:13:57 PM 36.9540 -111.9030 89° East 491 565 35,000 61 Level FlightAware ADS-B
Sun 08:14:36 PM 36.9950 -111.8040 63° Northeast 496 571 35,100  Climbing FlightAware ADS-B
Sun 08:15:18 PM 37.0410 -111.6960 62° Northeast 494 568 35,000 -71 Descending FlightAware ADS-B
Sun 08:16:00 PM 37.0870 -111.5870 62° Northeast 495 570 35,000  Level FlightAware ADS-B
Sun 08:16:42 PM 37.1310 -111.4830 62° Northeast 495 570 35,000  Level FlightAware ADS-B
Sun 08:17:26 PM 37.1780 -111.3710 62° Northeast 496 571 35,000  Level FlightAware ADS-B
Sun 08:18:06 PM 37.2210 -111.2700 62° Northeast 498 573 35,000  Level FlightAware ADS-B
Sun 08:18:43 PM 37.2570 -111.1860 62° Northeast 498 573 35,000  Level FlightAware ADS-B
Sun 08:19:33 PM 37.3030 -111.0770 62° Northeast 498 573 35,000  Level FlightAware ADS-B
Sun 08:20:09 PM 37.3360 -110.9990 62° Northeast 498 573 35,000  Level FlightAware ADS-B
Sun 08:20:45 PM 37.3690 -110.9200 62° Northeast 498 573 35,000  Level FlightAware ADS-B
Sun 08:21:28 PM 37.4390 -110.7490 63° Northeast 499 574 35,000  Level FlightAware ADS-B
Sun 08:22:12 PM 37.4850 -110.6370 63° Northeast 495 570 35,000  Level FlightAware ADS-B
Sun 08:22:46 PM 37.5210 -110.5480 63° Northeast 495 570 35,000  Level FlightAware ADS-B
Sun 08:23:30 PM 37.5680 -110.4350 62° Northeast 492 566 35,000  Level FlightAware ADS-B
Sun 08:24:10 PM 37.6090 -110.3350 63° Northeast 493 567 35,000  Level FlightAware ADS-B
Sun 08:24:54 PM 37.6560 -110.2210 62° Northeast 495 570 35,000  Level FlightAware ADS-B
Sun 08:25:34 PM 37.6960 -110.1220 63° Northeast 498 573 35,000  Level FlightAware ADS-B
Sun 08:26:19 PM 37.7440 -110.0040 63° Northeast 503 579 35,000 71 Level FlightAware ADS-B
Sun 08:26:59 PM 37.7870 -109.8970 63° Northeast 504 580 35,100 80 Climbing FlightAware ADS-B
Sun 08:27:34 PM 37.8230 -109.8060 63° Northeast 503 579 35,100 -80 Level FlightAware ADS-B
Sun 08:28:14 PM 37.8650 -109.7010 63° Northeast 504 580 35,000 -71 Descending FlightAware ADS-B
Sun 08:28:58 PM 37.9120 -109.5840 63° Northeast 505 581 35,000  Level FlightAware ADS-B
Sun 08:29:39 PM 37.9540 -109.4770 64° Northeast 507 583 35,000 79 Level FlightAware ADS-B
Sun 08:30:14 PM 37.9920 -109.3830 63° Northeast 504 580 35,100 78 Climbing FlightAware ADS-B
Sun 08:30:56 PM 38.0350 -109.2740 63° Northeast 497 572 35,100 -75 Level FlightAware ADS-B
Sun 08:31:34 PM 38.0750 -109.1730 63° Northeast 494 568 35,000 -71 Descending FlightAware ADS-B
Sun 08:32:20 PM 38.1210 -109.0550 64° Northeast 494 568 35,000  Level FlightAware ADS-B
Sun 08:33:03 PM 38.1650 -108.9430 63° Northeast 496 571 35,000  Level FlightAware ADS-B
Sun 08:33:43 PM 38.2060 -108.8380 64° Northeast 499 574 35,000  Level FlightAware ADS-B
Sun 08:34:27 PM 38.2510 -108.7210 64° Northeast 502 578 35,000  Level FlightAware ADS-B
Sun 08:35:03 PM 38.2870 -108.6270 64° Northeast 504 580 35,000 79 Level FlightAware ADS-B
Sun 08:35:43 PM 38.3280 -108.5200 64° Northeast 504 580 35,100  Climbing FlightAware ADS-B
Sun 08:36:28 PM 38.3740 -108.4030 63° Northeast 502 578 35,000 -78 Descending FlightAware ADS-B
Sun 08:37:00 PM 38.4070 -108.3170 64° Northeast 502 578 35,000  Level FlightAware ADS-B
Sun 08:37:43 PM 38.4500 -108.2030 64° Northeast 500 575 35,000  Level FlightAware ADS-B
Sun 08:38:23 PM 38.4910 -108.0960 64° Northeast 502 578 35,000  Level FlightAware ADS-B
Sun 08:38:59 PM 38.5270 -107.9990 65° Northeast 502 578 35,000  Level FlightAware ADS-B
Sun 08:39:44 PM 38.5720 -107.8810 64° Northeast 503 579 35,000  Level FlightAware ADS-B
Sun 08:40:23 PM 38.6120 -107.7750 64° Northeast 503 579 35,000  Level FlightAware ADS-B
Sun 08:41:05 PM 38.6540 -107.6630 64° Northeast 503 579 35,000  Level FlightAware ADS-B
Sun 08:41:49 PM 38.6980 -107.5460 64° Northeast 503 579 35,000  Level FlightAware ADS-B
Sun 08:42:30 PM 38.7380 -107.4360 65° Northeast 502 578 35,000  Level FlightAware ADS-B
Sun 08:43:08 PM 38.7767 -107.3330 64° Northeast 502 578 35,000  Level FlightAware ADS-B
Sun 08:43:39 PM 38.8074 -107.2500 65° Northeast 502 578 35,000  Level FlightAware ADS-B
Sun 08:44:09 PM 38.8370 -107.1690 65° Northeast 503 579 35,000  Level FlightAware ADS-B
Sun 08:44:39 PM 38.8671 -107.0880 64° Northeast 504 580 35,000  Level FlightAware ADS-B
Sun 08:45:09 PM 38.8968 -107.0070 65° Northeast 504 580 35,000 98 Level FlightAware ADS-B
Sun 08:45:40 PM 38.9275 -106.9230 65° Northeast 501 577 35,100  Climbing FlightAware ADS-B
Sun 08:46:10 PM 38.9572 -106.8410 65° Northeast 501 577 35,000 -97 Descending FlightAware ADS-B
Sun 08:46:42 PM 38.9880 -106.7570 65° Northeast 499 574 35,000  Level FlightAware ADS-B
Sun 08:47:12 PM 39.0174 -106.6750 65° Northeast 498 573 35,000  Level FlightAware ADS-B
Sun 08:47:42 PM 39.0468 -106.5940 65° Northeast 498 573 35,000  Level FlightAware ADS-B
Sun 08:48:13 PM 39.0761 -106.5130 65° Northeast 499 574 35,000  Level FlightAware ADS-B
Sun 08:48:44 PM 39.1059 -106.4300 65° Northeast 500 575 35,000  Level FlightAware ADS-B
Sun 08:49:14 PM 39.1348 -106.3500 65° Northeast 500 575 35,000  Level FlightAware ADS-B
Sun 08:49:44 PM 39.1640 -106.2680 65° Northeast 500 575 35,000  Level FlightAware ADS-B
Sun 08:50:14 PM 39.1932 -106.1860 65° Northeast 501 577 35,000  Level FlightAware ADS-B
Sun 08:50:44 PM 39.2224 -106.1040 65° Northeast 502 578 35,000  Level FlightAware ADS-B
Sun 08:51:15 PM 39.2515 -106.0210 66° East 501 577 35,000  Level FlightAware ADS-B
Sun 08:51:45 PM 39.2807 -105.9390 65° Northeast 503 579 35,000  Level FlightAware ADS-B
Sun 08:52:15 PM 39.3095 -105.8570 66° East 503 579 35,000  Level FlightAware ADS-B
Sun 08:52:45 PM 39.3374 -105.7780 65° Northeast 503 579 35,000 100 Level FlightAware ADS-B
Sun 08:53:15 PM 39.3675 -105.6920 66° East 503 579 35,100 98 Climbing FlightAware ADS-B
Sun 08:53:46 PM 39.3966 -105.6090 66° East 501 577 35,100  Level FlightAware ADS-B
Sun 08:54:16 PM 39.4254 -105.5260 66° East 499 574 35,100 -98 Level FlightAware ADS-B
Sun 08:54:47 PM 39.4538 -105.4440 66° East 497 572 35,000 -98 Descending FlightAware ADS-B
Sun 08:55:17 PM 39.4825 -105.3610 66° East 497 572 35,000  Level FlightAware ADS-B
Sun 08:55:48 PM 39.5110 -105.2790 66° East 497 572 35,000  Level FlightAware ADS-B
Sun 08:56:19 PM 39.5402 -105.1940 66° East 497 572 35,000  Level FlightAware ADS-B
Sun 08:56:49 PM 39.5688 -105.1110 66° East 497 572 35,000  Level FlightAware ADS-B
Sun 08:57:20 PM 39.5974 -105.0270 66° East 498 573 35,000  Level FlightAware ADS-B
Sun 08:57:51 PM 39.6260 -104.9430 66° East 498 573 35,000  Level FlightAware ADS-B
Sun 08:58:22 PM 39.6546 -104.8590 66° East 499 574 35,000  Level FlightAware ADS-B
Sun 08:58:52 PM 39.6826 -104.7770 66° East 500 575 35,000  Level FlightAware ADS-B
Sun 08:59:22 PM 39.7106 -104.6940 66° East 501 577 35,000  Level FlightAware ADS-B
Sun 08:59:52 PM 39.7391 -104.6100 66° East 502 578 35,000  Level FlightAware ADS-B
Sun 09:00:23 PM 39.7674 -104.5260 66° East 503 579 35,000  Level FlightAware ADS-B
Sun 09:00:53 PM 39.7954 -104.4420 67° East 503 579 35,000  Level FlightAware ADS-B
Sun 09:01:23 PM 39.8233 -104.3590 66° East 503 579 35,000  Level FlightAware ADS-B
Sun 09:01:54 PM 39.8514 -104.2750 66° East 501 577 35,000  Level FlightAware ADS-B
Sun 09:02:24 PM 39.8792 -104.1910 67° East 500 575 35,000  Level FlightAware ADS-B
Sun 09:02:55 PM 39.9070 -104.1070 67° East 499 574 35,000  Level FlightAware ADS-B
Sun 09:03:25 PM 39.9350 -104.0220 67° East 500 575 35,000  Level FlightAware ADS-B
Sun 09:03:57 PM 39.9636 -103.9350 67° East 500 575 35,000  Level FlightAware ADS-B
Sun 09:04:27 PM 39.9913 -103.8510 67° East 502 578 35,000  Level FlightAware ADS-B
Sun 09:05:00 PM 40.0212 -103.7600 67° East 503 579 35,000  Level FlightAware ADS-B
Sun 09:05:31 PM 40.0491 -103.6740 67° East 504 580 35,000  Level FlightAware ADS-B
Sun 09:06:01 PM 40.0763 -103.5910 67° East 506 582 35,000  Level FlightAware ADS-B
Sun 09:06:31 PM 40.1039 -103.5050 67° East 506 582 35,000  Level FlightAware ADS-B
Sun 09:07:01 PM 40.1315 -103.4200 67° East 506 582 35,000  Level FlightAware ADS-B
Sun 09:07:32 PM 40.1594 -103.3330 67° East 507 583 35,000  Level FlightAware ADS-B
Sun 09:08:02 PM 40.1868 -103.2480 67° East 510 587 35,000  Level FlightAware ADS-B
Sun 09:08:32 PM 40.2142 -103.1630 67° East 511 588 35,000  Level FlightAware ADS-B
Sun 09:09:04 PM 40.2427 -103.0740 67° East 511 588 35,000  Level FlightAware ADS-B
Sun 09:09:34 PM 40.2704 -102.9870 67° East 511 588 35,000 100 Level FlightAware ADS-B
Sun 09:10:04 PM 40.2976 -102.9010 67° East 510 587 35,100  Climbing FlightAware ADS-B
Sun 09:10:38 PM 40.3279 -102.8050 67° East 508 585 35,000 -92 Descending FlightAware ADS-B
Sun 09:11:09 PM 40.3553 -102.7180 68° East 507 583 35,000  Level FlightAware ADS-B
Sun 09:11:39 PM 40.3823 -102.6330 67° East 506 582 35,000  Level FlightAware ADS-B
Sun 09:12:09 PM 40.4091 -102.5470 68° East 507 583 35,000  Level FlightAware ADS-B
Sun 09:12:40 PM 40.4365 -102.4590 68° East 508 585 35,000  Level FlightAware ADS-B
Sun 09:13:12 PM 40.4650 -102.3680 68° East 510 587 35,000  Level FlightAware ADS-B
Sun 09:13:42 PM 40.4916 -102.2820 68° East 510 587 35,000  Level FlightAware ADS-B
Sun 09:14:12 PM 40.5183 -102.1960 68° East 511 588 35,000  Level FlightAware ADS-B
Sun 09:14:43 PM 40.5453 -102.1080 68° East 512 589 35,000  Level FlightAware ADS-B
Sun 09:15:13 PM 40.5723 -102.0200 68° East 513 590 35,000  Level FlightAware ADS-B
Sun 09:15:44 PM 40.5992 -101.9320 68° East 514 592 35,000  Level FlightAware ADS-B
Sun 09:16:14 PM 40.6265 -101.8420 68° East 513 590 35,000  Level FlightAware ADS-B
Sun 09:16:45 PM 40.6532 -101.7550 68° East 513 590 35,000  Level FlightAware ADS-B
Sun 09:17:16 PM 40.6804 -101.6650 68° East 513 590 35,000  Level FlightAware ADS-B
Sun 09:17:46 PM 40.7070 -101.5770 68° East 513 590 35,000  Level FlightAware ADS-B
Sun 09:18:16 PM 40.7334 -101.4890 68° East 513 590 35,000  Level FlightAware ADS-B
Sun 09:18:47 PM 40.7605 -101.3990 68° East 513 590 35,000  Level FlightAware ADS-B
Sun 09:19:17 PM 40.7866 -101.3120 68° East 512 589 35,000  Level FlightAware ADS-B
Sun 09:19:48 PM 40.8136 -101.2220 68° East 520 598 35,000  Level FlightAware ADS-B
Sun 09:20:18 PM 40.8400 -101.1330 69° East 529 609 35,000  Level FlightAware ADS-B
Sun 09:21:36 PM 40.9036 -100.9203 69° East 532 612 35,000 300 Level Denver Center
Sun 09:22:38 PM 40.9583 -100.7394 68° East 538 619 35,700 683 Climbing Denver Center
Sun 09:23:39 PM 41.0169 -100.5322 69° East 533 613 36,400 634 Climbing Denver Center
Sun 09:24:41 PM 41.0669 -100.3581 69° East 527 606 37,000 290 Climbing Denver Center
Sun 09:25:43 PM 41.1250 -100.1561 69° East 526 605 37,000  Level Denver Center
Sun 09:33:39 PM 41.5220 -98.7250 70° East 521 600 37,000  Level FlightAware ADS-B
Sun 09:34:26 PM 41.5580 -98.5890 70° East 521 600 37,000  Level FlightAware ADS-B
Sun 09:35:23 PM 41.6020 -98.4280 70° East 521 600 37,000  Level FlightAware ADS-B
Sun 09:35:59 PM 41.6350 -98.3000 71° East 522 601 37,000  Level FlightAware ADS-B
Sun 09:36:39 PM 41.6660 -98.1840 70° East 523 602 37,000  Level FlightAware ADS-B
Sun 09:37:29 PM 41.7020 -98.0480 70° East 523 602 37,000  Level FlightAware ADS-B
Sun 09:37:59 PM 41.7300 -97.9380 71° East 523 602 37,000  Level FlightAware ADS-B
Sun 09:39:01 PM 41.7790 -97.7550 70° East 523 602 37,000  Level FlightAware ADS-B
Sun 09:39:38 PM 41.8050 -97.6540 71° East 523 602 37,000  Level FlightAware ADS-B
Sun 09:40:14 PM 41.8390 -97.5190 71° East 521 600 37,000  Level FlightAware ADS-B
Sun 09:41:15 PM 41.8840 -97.3440 71° East 522 601 37,000  Level FlightAware ADS-B
Sun 09:41:54 PM 41.9170 -97.2120 71° East 522 601 37,000  Level FlightAware ADS-B
Sun 09:42:41 PM 41.9510 -97.0780 71° East 522 601 37,000  Level FlightAware ADS-B
Sun 09:43:24 PM 41.9870 -96.9360 71° East 521 600 37,000  Level FlightAware ADS-B
Sun 09:44:04 PM 42.0180 -96.8120 71° East 521 600 37,000  Level FlightAware ADS-B
Sun 09:44:49 PM 42.0520 -96.6730 72° East 521 600 37,000  Level FlightAware ADS-B
Sun 09:45:24 PM 42.0780 -96.5680 72° East 521 600 37,000  Level FlightAware ADS-B
Sun 09:46:13 PM 42.1160 -96.4130 72° East 522 601 37,000  Level FlightAware ADS-B
Sun 09:46:49 PM 42.1430 -96.3050 71° East 523 602 37,000  Level FlightAware ADS-B
Sun 09:47:26 PM 42.1700 -96.1910 72° East 522 601 37,000  Level FlightAware ADS-B
Sun 09:48:09 PM 42.2010 -96.0640 72° East 524 603 37,000  Level FlightAware ADS-B
Sun 09:48:53 PM 42.2360 -95.9170 72° East 524 603 37,000  Level FlightAware ADS-B
Sun 09:49:33 PM 42.2650 -95.7970 72° East 523 602 37,000  Level FlightAware ADS-B
Sun 09:50:13 PM 42.2950 -95.6700 72° East 521 600 37,000  Level FlightAware ADS-B
Sun 09:50:57 PM 42.3280 -95.5330 72° East 522 601 37,000  Level FlightAware ADS-B
Sun 09:51:37 PM 42.3570 -95.4090 72° East 522 601 37,000  Level FlightAware ADS-B
Sun 09:52:15 PM 42.3850 -95.2900 72° East 522 601 37,000  Level FlightAware ADS-B
Sun 09:52:59 PM 42.4160 -95.1530 73° East 523 602 37,000  Level FlightAware ADS-B
Sun 09:53:37 PM 42.4430 -95.0370 72° East 524 603 37,000  Level FlightAware ADS-B
Sun 09:54:14 PM 42.4700 -94.9210 72° East 525 604 37,000  Level FlightAware ADS-B
Sun 09:54:58 PM 42.5000 -94.7870 73° East 525 604 37,000  Level FlightAware ADS-B
Sun 09:55:34 PM 42.5260 -94.6740 73° East 523 602 37,000  Level FlightAware ADS-B
Sun 09:56:22 PM 42.5600 -94.5220 73° East 522 601 37,000  Level FlightAware ADS-B
Sun 09:57:02 PM 42.5890 -94.3930 73° East 524 603 37,000  Level FlightAware ADS-B
Sun 09:57:46 PM 42.6080 -94.2500 80° East 532 612 37,000  Level FlightAware ADS-B
Sun 09:58:26 PM 42.6130 -94.1150 87° East 538 619 37,000  Level FlightAware ADS-B
Sun 09:59:10 PM 42.6140 -93.9690 89° East 538 619 37,000  Level FlightAware ADS-B
Sun 09:59:50 PM 42.6150 -93.8330 89° East 536 617 37,000  Level FlightAware ADS-B
Sun 10:01:44 PM 42.6180 -93.5030 89° East 536 617 37,000  Level FlightAware ADS-B
Sun 10:02:29 PM 42.6170 -93.3070 90° East 535 616 37,000  Level FlightAware ADS-B
Sun 10:03:08 PM 42.6170 -93.1720 90° East 536 617 37,000  Level FlightAware ADS-B
Sun 10:03:52 PM 42.6170 -93.0220 90° East 537 618 37,000  Level FlightAware ADS-B
Sun 10:04:38 PM 42.6170 -92.8660 90° East 540 621 37,000  Level FlightAware ADS-B
Sun 10:05:18 PM 42.6160 -92.7360 91° East 542 624 37,000  Level FlightAware ADS-B
Sun 10:06:01 PM 42.6150 -92.5860 90° East 543 625 37,000  Level FlightAware ADS-B
Sun 10:06:42 PM 42.6150 -92.4480 90° East 543 625 37,000 71 Level FlightAware ADS-B
Sun 10:07:26 PM 42.6130 -92.2960 91° East 542 624 37,100  Climbing FlightAware ADS-B
Sun 10:08:07 PM 42.6120 -92.1640 91° East 541 623 37,000 -71 Descending FlightAware ADS-B
Sun 10:08:50 PM 42.6110 -92.0130 90° East 540 621 37,000  Level FlightAware ADS-B
Sun 10:09:30 PM 42.6100 -91.8800 91° East 538 619 37,000  Level FlightAware ADS-B
Sun 10:10:11 PM 42.6080 -91.7440 91° East 538 619 37,000  Level FlightAware ADS-B
Sun 10:10:48 PM 42.6060 -91.6180 91° East 538 619 37,000  Level FlightAware ADS-B
Sun 10:11:30 PM 42.6040 -91.4750 91° East 539 620 37,000  Level FlightAware ADS-B
Sun 10:12:11 PM 42.6020 -91.3400 91° East 538 619 37,000  Level FlightAware ADS-B
Sun 10:12:48 PM 42.6000 -91.2190 91° East 537 618 37,000  Level FlightAware ADS-B
Sun 10:13:27 PM 42.5980 -91.0850 91° East 537 618 37,000  Level FlightAware ADS-B
Sun 10:14:08 PM 42.5950 -90.9440 92° East 537 618 37,000  Level FlightAware ADS-B
Sun 10:14:55 PM 42.5920 -90.7900 91° East 539 620 37,000  Level FlightAware ADS-B
Sun 10:15:35 PM 42.5890 -90.6560 92° East 540 621 37,000  Level FlightAware ADS-B
Sun 10:16:16 PM 42.5860 -90.5120 92° East 538 619 37,000 71 Level FlightAware ADS-B
Sun 10:17:00 PM 42.5820 -90.3700 92° East 534 615 37,100  Climbing FlightAware ADS-B
Sun 10:17:40 PM 42.5790 -90.2290 92° East 531 611 37,000 -71 Descending FlightAware ADS-B
Sun 10:18:24 PM 42.5750 -90.0870 92° East 519 597 37,000  Level FlightAware ADS-B
Sun 10:19:04 PM 42.5720 -89.9560 92° East 524 603 37,000  Level FlightAware ADS-B
Sun 10:19:44 PM 42.5680 -89.8220 92° East 530 610 37,000  Level FlightAware ADS-B
Sun 10:20:30 PM 42.5630 -89.6700 93° East 532 612 37,000 70 Level FlightAware ADS-B
Sun 10:21:10 PM 42.5590 -89.5370 92° East 530 610 37,100  Climbing FlightAware ADS-B
Sun 10:21:51 PM 42.5550 -89.4060 92° East 527 606 37,000 -71 Descending FlightAware ADS-B
Sun 10:22:35 PM 42.5500 -89.2600 93° East 524 603 37,000  Level FlightAware ADS-B
Sun 10:23:15 PM 42.5450 -89.1250 93° East 518 596 37,000  Level FlightAware ADS-B
Sun 10:24:00 PM 42.5400 -88.9840 93° East 515 593 37,000  Level FlightAware ADS-B
Sun 10:24:36 PM 42.5360 -88.8710 93° East 515 593 37,000  Level FlightAware ADS-B
Sun 10:25:16 PM 42.5310 -88.7380 93° East 517 595 37,000  Level FlightAware ADS-B
Sun 10:26:00 PM 42.5260 -88.5960 93° East 517 595 37,000  Level FlightAware ADS-B
Sun 10:26:36 PM 42.5210 -88.4820 93° East 518 596 37,000  Level FlightAware ADS-B
Sun 10:27:16 PM 42.5150 -88.3510 94° East 518 596 37,000  Level FlightAware ADS-B
Sun 10:27:56 PM 42.5100 -88.2200 93° East 516 594 37,000  Level FlightAware ADS-B
Sun 10:28:36 PM 42.5040 -88.0900 94° East 514 592 37,000  Level FlightAware ADS-B
Sun 10:29:18 PM 42.5000 -87.9560 92° East 511 588 37,000  Level FlightAware ADS-B
Sun 10:30:04 PM 42.5000 -87.8110 90° East 510 587 37,000  Level FlightAware ADS-B
Sun 10:30:43 PM 42.5000 -87.6850 90° East 510 587 37,000  Level FlightAware ADS-B
Sun 10:31:26 PM 42.4990 -87.5490 91° East 510 587 37,000  Level FlightAware ADS-B
Sun 10:32:02 PM 42.4990 -87.4350 90° East 510 587 37,000  Level FlightAware ADS-B
Sun 10:32:46 PM 42.4980 -87.2950 91° East 509 586 37,000  Level FlightAware ADS-B
Sun 10:33:26 PM 42.4970 -87.1650 91° East 507 583 37,000  Level FlightAware ADS-B
Sun 10:34:02 PM 42.4960 -87.0540 91° East 507 583 37,000  Level FlightAware ADS-B
Sun 10:34:43 PM 42.4950 -86.9250 91° East 508 585 37,000  Level FlightAware ADS-B
Sun 10:35:24 PM 42.4940 -86.7960 91° East 507 583 37,000  Level FlightAware ADS-B
Sun 10:36:08 PM 42.4930 -86.6530 90° East 506 582 37,000  Level FlightAware ADS-B
Sun 10:36:48 PM 42.4910 -86.5260 91° East 504 580 37,000  Level FlightAware ADS-B
Sun 10:37:33 PM 42.4890 -86.3930 91° East 504 580 37,000  Level FlightAware ADS-B
Sun 10:38:14 PM 42.4870 -86.2590 91° East 504 580 37,000  Level FlightAware ADS-B
Sun 10:38:58 PM 42.4850 -86.1190 91° East 504 580 37,000  Level FlightAware ADS-B
Sun 10:39:38 PM 42.4830 -85.9940 91° East 504 580 37,000  Level FlightAware ADS-B
Sun 10:40:22 PM 42.4810 -85.8540 91° East 504 580 37,000  Level FlightAware ADS-B
Sun 10:41:02 PM 42.4780 -85.7300 92° East 505 581 37,000  Level FlightAware ADS-B
Sun 10:41:42 PM 42.4760 -85.6030 91° East 504 580 37,000  Level FlightAware ADS-B
Sun 10:42:24 PM 42.4730 -85.4740 92° East 502 578 37,000  Level FlightAware ADS-B
Sun 10:43:02 PM 42.4700 -85.3520 92° East 500 575 37,000  Level FlightAware ADS-B
Sun 10:43:42 PM 42.4670 -85.2270 92° East 501 577 37,000  Level FlightAware ADS-B
Sun 10:44:25 PM 42.4640 -85.0950 92° East 503 579 37,000  Level FlightAware ADS-B
Sun 10:45:02 PM 42.4610 -84.9760 92° East 505 581 37,000  Level FlightAware ADS-B
Sun 10:45:42 PM 42.4580 -84.8480 92° East 507 583 37,000  Level FlightAware ADS-B
Sun 10:46:20 PM 42.4540 -84.7280 93° East 507 583 37,000 71 Level FlightAware ADS-B
Sun 10:47:06 PM 42.4500 -84.5810 92° East 504 580 37,100  Climbing FlightAware ADS-B
Sun 10:47:50 PM 42.4460 -84.4520 92° East 501 577 37,000 -72 Descending FlightAware ADS-B
Sun 10:48:29 PM 42.4420 -84.3260 92° East 500 575 37,000  Level FlightAware ADS-B
Sun 10:49:14 PM 42.4380 -84.1890 92° East 500 575 37,000  Level FlightAware ADS-B
Sun 10:49:46 PM 42.4340 -84.0850 93° East 499 574 37,000  Level FlightAware ADS-B
Sun 10:50:30 PM 42.4290 -83.9470 93° East 499 574 37,000  Level FlightAware ADS-B
Sun 10:51:10 PM 42.4250 -83.8200 92° East 500 575 37,000  Level FlightAware ADS-B
Sun 10:51:50 PM 42.4200 -83.6960 93° East 500 575 37,000  Level FlightAware ADS-B
Sun 10:52:34 PM 42.4150 -83.5610 93° East 500 575 37,000  Level FlightAware ADS-B
Sun 10:53:18 PM 42.4100 -83.4250 93° East 498 573 37,000  Level FlightAware ADS-B
Sun 10:54:00 PM 42.4040 -83.2900 93° East 497 572 37,000  Level FlightAware ADS-B
Sun 10:54:38 PM 42.4000 -83.1780 93° East 497 572 37,000  Level FlightAware ADS-B
Sun 10:55:16 PM 42.3950 -83.0560 93° East 497 572 37,000  Level FlightAware ADS-B
Sun 10:55:58 PM 42.3890 -82.9290 94° East 496 571 37,000  Level FlightAware ADS-B
Sun 10:56:38 PM 42.3840 -82.8070 93° East 495 570 37,000  Level FlightAware ADS-B
Sun 10:57:14 PM 42.3780 -82.6910 94° East 496 571 37,000  Level FlightAware ADS-B
Sun 10:57:56 PM 42.3730 -82.5610 93° East 496 571 37,000  Level FlightAware ADS-B
Sun 10:58:38 PM 42.3680 -82.4330 93° East 495 570 37,000  Level FlightAware ADS-B
Sun 10:59:14 PM 42.3640 -82.3210 93° East 495 570 37,000  Level FlightAware ADS-B
Sun 10:59:58 PM 42.3580 -82.1840 93° East 494 568 37,000  Level FlightAware ADS-B
Sun 11:00:38 PM 42.3530 -82.0670 93° East 494 568 37,000  Level FlightAware ADS-B
Sun 11:01:16 PM 42.3480 -81.9500 93° East 494 568 37,000  Level FlightAware ADS-B
Sun 11:02:02 PM 42.3420 -81.8060 93° East 494 568 37,000  Level FlightAware ADS-B
Sun 11:02:43 PM 42.3360 -81.6810 94° East 493 567 37,000  Level FlightAware ADS-B
Sun 11:03:28 PM 42.3300 -81.5420 93° East 494 568 37,000  Level FlightAware ADS-B
Sun 11:04:10 PM 42.3230 -81.4110 94° East 496 571 37,000  Level FlightAware ADS-B
Sun 11:04:47 PM 42.3180 -81.2970 93° East 496 571 37,000  Level FlightAware ADS-B
Sun 11:05:31 PM 42.3110 -81.1600 94° East 494 568 37,000  Level FlightAware ADS-B
Sun 11:06:13 PM 42.3040 -81.0350 94° East 493 567 37,000  Level FlightAware ADS-B
Sun 11:06:59 PM 42.2930 -80.8930 96° East 488 562 37,000  Level FlightAware ADS-B
Sun 11:07:36 PM 42.2780 -80.7820 100° East 486 559 37,000  Level FlightAware ADS-B
Sun 11:08:20 PM 42.2600 -80.6550 101° East 477 549 37,000  Level FlightAware ADS-B
Sun 11:09:02 PM 42.2440 -80.5350 100° East 458 527 37,000  Level FlightAware ADS-B
Sun 11:09:45 PM 42.2280 -80.4240 101° East 461 531 37,000  Level FlightAware ADS-B
Sun 11:10:25 PM 42.2110 -80.3030 101° East 468 539 37,000  Level FlightAware ADS-B
Sun 11:11:20 PM 42.1880 -80.1430 101° East 466 536 37,000  Level FlightAware ADS-B
Sun 11:12:00 PM 42.1740 -80.0410 100° East 474 545 37,000  Level FlightAware ADS-B
Sun 11:12:44 PM 42.1540 -79.9040 101° East 484 557 37,000  Level FlightAware ADS-B
Sun 11:13:28 PM 42.1340 -79.7660 101° East 494 568 37,000  Level FlightAware ADS-B
Sun 11:14:12 PM 42.1150 -79.6370 101° East 497 572 37,000 72 Level FlightAware ADS-B
Sun 11:14:51 PM 42.0970 -79.5190 102° East 496 571 37,100 71 Climbing FlightAware ADS-B
Sun 11:15:36 PM 42.0770 -79.3820 101° East 492 566 37,100  Level FlightAware ADS-B
Sun 11:16:16 PM 42.0590 -79.2640 102° East 487 560 37,100 -75 Level FlightAware ADS-B
Sun 11:16:56 PM 42.0410 -79.1440 101° East 484 557 37,000 -75 Descending FlightAware ADS-B
Sun 11:17:36 PM 42.0230 -79.0240 101° East 484 557 37,000  Level FlightAware ADS-B
Sun 11:18:16 PM 42.0040 -78.9070 102° East 486 559 37,000  Level FlightAware ADS-B
Sun 11:18:56 PM 41.9860 -78.7880 101° East 488 562 37,000  Level FlightAware ADS-B
Sun 11:19:36 PM 41.9670 -78.6700 102° East 489 563 37,000  Level FlightAware ADS-B
Sun 11:20:22 PM 41.9460 -78.5340 102° East 490 564 37,000  Level FlightAware ADS-B
Sun 11:21:04 PM 41.9260 -78.4080 102° East 488 562 37,000  Level FlightAware ADS-B
Sun 11:21:39 PM 41.9100 -78.3120 103° East 488 562 37,000  Level FlightAware ADS-B
Sun 11:22:28 PM 41.8860 -78.1620 102° East 487 560 37,000  Level FlightAware ADS-B
Sun 11:23:08 PM 41.8670 -78.0440 102° East 485 558 37,000  Level FlightAware ADS-B
Sun 11:23:52 PM 41.8470 -77.9170 102° East 482 555 37,000  Level FlightAware ADS-B
Sun 11:24:32 PM 41.8270 -77.8000 103° East 482 555 37,000  Level FlightAware ADS-B
Sun 11:25:16 PM 41.8060 -77.6730 102° East 483 556 37,000  Level FlightAware ADS-B
Sun 11:25:56 PM 41.7850 -77.5540 103° East 479 551 37,000  Level FlightAware ADS-B
Sun 11:26:36 PM 41.7570 -77.4420 108° East 472 543 37,000  Level FlightAware ADS-B
Sun 11:27:16 PM 41.7270 -77.3310 110° East 474 545 37,000 75 Level FlightAware ADS-B
Sun 11:27:56 PM 41.6970 -77.2210 110° East 472 543 37,100 82 Climbing FlightAware ADS-B
Sun 11:28:29 PM 41.6732 -77.1307 109° East 473 544 37,100 -94 Level FlightAware ADS-B
Sun 11:29:00 PM 41.6503 -77.0463 110° East 470 541 37,000 -83 Descending FlightAware ADS-B
Sun 11:29:41 PM 41.6201 -76.9353 110° East 466 536 37,000  Level FlightAware ADS-B
Sun 11:30:11 PM 41.5979 -76.8539 110° East 464 534 37,000  Level FlightAware ADS-B
Sun 11:30:43 PM 41.5749 -76.7697 110° East 464 534 37,000  Level FlightAware ADS-B
Sun 11:31:14 PM 41.5521 -76.6866 110° East 464 534 37,000  Level FlightAware ADS-B
Sun 11:31:45 PM 41.5287 -76.6018 110° East 465 535 37,000  Level FlightAware ADS-B
Sun 11:32:16 PM 41.5057 -76.5182 110° East 464 534 37,000  Level FlightAware ADS-B
Sun 11:32:47 PM 41.4833 -76.4369 110° East 464 534 37,000  Level FlightAware ADS-B
Sun 11:33:17 PM 41.4606 -76.3554 110° East 463 533 37,000  Level FlightAware ADS-B
Sun 11:33:48 PM 41.4379 -76.2740 110° East 463 533 37,000 -286 Level FlightAware ADS-B
Sun 11:34:20 PM 41.4140 -76.1892 111° Southeast 466 536 36,700 -1,452 Descending FlightAware ADS-B
Sun 11:34:50 PM 41.3918 -76.1092 110° East 449 517 35,500 -2,600 Descending FlightAware ADS-B
Sun 11:35:20 PM 41.3699 -76.0308 110° East 446 513 34,100 -2,900 Descending FlightAware ADS-B
Sun 11:35:50 PM 41.3480 -75.9542 111° Southeast 439 505 32,600 -2,852 Descending FlightAware ADS-B
Sun 11:36:21 PM 41.3265 -75.8784 111° Southeast 440 506 31,200 -2,852 Descending FlightAware ADS-B
Sun 11:36:51 PM 41.3044 -75.8007 111° Southeast 442 509 29,700 -2,852 Descending FlightAware ADS-B
Sun 11:37:22 PM 41.2825 -75.7236 111° Southeast 448 516 28,300 -2,750 Descending FlightAware ADS-B
Sun 11:37:39 PM 41.2692 -75.6784 111° Southeast 446 513 27,500 -2,681 Descending FlightAware ADS-B
Sun 11:38:09 PM 41.2437 -75.6023 114° Southeast 452 520 26,200 -2,613 Descending FlightAware ADS-B
Sun 11:38:41 PM 41.2171 -75.5222 114° Southeast 449 517 24,800 -2,323 Descending FlightAware ADS-B
Sun 11:39:11 PM 41.1923 -75.4476 114° Southeast 442 509 23,800 -1,672 Descending FlightAware ADS-B
Sun 11:39:42 PM 41.1671 -75.3720 114° Southeast 430 495 23,100 -787 Descending FlightAware ADS-B
Sun 11:40:12 PM 41.1432 -75.3009 114° Southeast 425 489 23,000 -98 Descending FlightAware ADS-B
Sun 11:40:43 PM 41.1180 -75.2266 114° Southeast 428 493 23,000  Level FlightAware ADS-B
Sun 11:41:13 PM 41.0933 -75.1541 114° Southeast 429 494 23,000  Level FlightAware ADS-B
Sun 11:41:44 PM 41.0682 -75.0800 114° Southeast 430 495 23,000  Level FlightAware ADS-B
Sun 11:42:15 PM 41.0428 -75.0060 114° Southeast 436 502 23,000  Level FlightAware ADS-B
Sun 11:42:46 PM 41.0171 -74.9309 114° Southeast 435 501 23,000  Level FlightAware ADS-B
Sun 11:43:02 PM 41.0034 -74.8904 114° Southeast 436 502 23,000  Level FlightAware ADS-B
Sun 11:43:12 PM 40.9968 -74.8660 110° East 444 511 23,000  Level FlightAware ADS-B
Sun 11:43:20 PM 40.9931 -74.8449 103° East 451 519 23,000  Level FlightAware ADS-B
Sun 11:43:50 PM 40.9842 -74.7615 98° East 453 521 23,000 -462 Level FlightAware ADS-B
Sun 11:44:12 PM 40.9781 -74.7026 98° East 451 519 22,600 -1,355 Descending FlightAware ADS-B
Sun 11:44:21 PM 40.9756 -74.6788 98° East 449 517 22,300 -1,622 Descending FlightAware ADS-B
Sun 11:44:49 PM 40.9670 -74.6005 98° East 450 518 21,600 -1,636 Descending FlightAware ADS-B
Sun 11:44:54 PM 40.9656 -74.5877 98° East 450 518 21,400 -1,714 Descending FlightAware ADS-B
Sun 11:45:24 PM 40.9567 -74.5057 98° East 443 510 20,600 -1,574 Descending FlightAware ADS-B
Sun 11:45:55 PM 40.9477 -74.4260 98° East 436 502 19,800 -1,548 Descending FlightAware ADS-B
Sun 11:46:26 PM 40.9388 -74.3462 98° East 417 480 19,000 -842 Descending FlightAware ADS-B
Sun 11:46:52 PM 40.9319 -74.2816 98° East 387 445 19,000  Level FlightAware ADS-B
Sun 11:46:58 PM 40.9298 -74.2701 104° East 378 435 19,000  Level FlightAware ADS-B
Sun 11:47:03 PM 40.9269 -74.2592 109° East 365 420 19,000  Level FlightAware ADS-B
Sun 11:47:07 PM 40.9238 -74.2507 116° Southeast 360 414 19,000  Level FlightAware ADS-B
Sun 11:47:11 PM 40.9203 -74.2433 122° Southeast 351 404 19,000  Level FlightAware ADS-B
Sun 11:47:17 PM 40.9143 -74.2330 128° Southeast 344 396 19,000  Level FlightAware ADS-B
Sun 11:47:43 PM 40.8857 -74.1981 137° Southeast 324 373 19,000 -750 Level FlightAware ADS-B
Sun 11:48:13 PM 40.8513 -74.1597 140° Southeast 324 373 18,300 -1,600 Descending FlightAware ADS-B
Sun 11:48:43 PM 40.8169 -74.1230 141° Southeast 310 357 17,400 -2,154 Descending FlightAware ADS-B
Sun 11:48:52 PM 40.8063 -74.1117 141° Southeast 313 360 16,900 -2,538 Descending FlightAware ADS-B
Sun 11:49:09 PM 40.7883 -74.0922 141° Southeast 315 362 16,300 -2,077 Descending FlightAware ADS-B
Sun 11:49:18 PM 40.7778 -74.0802 139° Southeast 315 362 16,000 -800 Descending FlightAware ADS-B
Sun 11:49:39 PM 40.7546 -74.0537 139° Southeast 315 362 15,900 -207 Descending FlightAware ADS-B
Sun 11:49:47 PM 40.7465 -74.0444 139° Southeast 313 360 15,900  Level FlightAware ADS-B
Sun 11:49:53 PM 40.7389 -74.0371 144° Southeast 307 353 15,900 -600 Level FlightAware ADS-B
Sun 11:49:57 PM 40.7340 -74.0333 150° Southeast 306 352 15,800 -1,200 Descending FlightAware ADS-B
Sun 11:49:58 PM 40.7334 -74.0329 153° Southeast 303 349 15,800 -857 Level FlightAware ADS-B
Sun 11:50:04 PM 40.7259 -74.0284 156° South 298 343 15,700 -667 Descending FlightAware ADS-B
Sun 11:50:07 PM 40.7224 -74.0265 158° South 297 342 15,700 -1,091 Level FlightAware ADS-B
Sun 11:50:15 PM 40.7112 -74.0211 160° South 293 337 15,500 -1,929 Descending FlightAware ADS-B
Sun 11:50:35 PM 40.6859 -74.0102 162° South 294 338 14,800 -1,731 Descending FlightAware ADS-B
Sun 11:51:07 PM 40.6453 -73.9937 163° South 284 327 14,000 -1,742 Descending FlightAware ADS-B
Sun 11:51:37 PM 40.6070 -73.9772 162° South 287 330 13,000 -1,082 Descending FlightAware ADS-B
Sun 11:52:08 PM 40.5685 -73.9618 163° South 281 323 12,900  Descending FlightAware ADS-B
Sun 11:52:20 PM 40.5533 -73.9556 163° South 284 327 13,000  Climbing FlightAware ADS-B
Sun 11:52:30 PM 40.5418 -73.9492 157° South 289 333 12,900 -800 Descending FlightAware ADS-B
Sun 11:52:35 PM 40.5359 -73.9448 150° Southeast 289 333 12,800 -1,714 Descending FlightAware ADS-B
Sun 11:53:05 PM 40.5020 -73.9153 147° Southeast 291 335 11,900 -2,000 Descending FlightAware ADS-B
Sun 11:53:35 PM 40.4684 -73.8874 148° Southeast 287 330 10,800 -2,426 Descending FlightAware ADS-B
Sun 11:53:52 PM 40.4496 -73.8721 148° Southeast 287 330 10,000 -3,000 Descending FlightAware ADS-B
Sun 11:54:07 PM 40.4326 -73.8577 147° Southeast 295 339 9,200 -2,800 Descending FlightAware ADS-B
Sun 11:54:22 PM 40.4154 -73.8430 147° Southeast 292 336 8,600 -2,250 Descending FlightAware ADS-B
Sun 11:54:39 PM 40.3967 -73.8269 147° Southeast 289 333 8,000 -2,294 Descending FlightAware ADS-B
Sun 11:54:56 PM 40.3777 -73.8111 148° Southeast 284 327 7,300 -2,538 Descending FlightAware ADS-B
Sun 11:55:05 PM 40.3675 -73.8027 148° Southeast 282 325 6,900 -2,308 Descending FlightAware ADS-B
Sun 11:55:09 PM 40.3625 -73.7980 144° Southeast 283 326 6,800 -1,800 Descending FlightAware ADS-B
Sun 11:55:15 PM 40.3579 -73.7922 136° Southeast 284 327 6,600 -1,636 Descending FlightAware ADS-B
Sun 11:55:20 PM 40.3538 -73.7852 128° Southeast 286 329 6,500 -1,200 Descending FlightAware ADS-B
Sun 11:55:25 PM 40.3503 -73.7772 120° Southeast 286 329 6,400 -1,500 Descending FlightAware ADS-B
Sun 11:55:32 PM 40.3460 -73.7656 116° Southeast 285 328 6,200 -1,636 Descending FlightAware ADS-B
Sun 11:55:47 PM 40.3379 -73.7423 115° Southeast 283 326 5,800 -1,680 Descending FlightAware ADS-B
Sun 11:55:57 PM 40.3328 -73.7269 113° Southeast 282 325 5,500 -1,895 Descending FlightAware ADS-B
Sun 11:56:06 PM 40.3301 -73.7112 103° East 285 328 5,200 -1,500 Descending FlightAware ADS-B
Sun 11:56:37 PM 40.3370 -73.6600 80° East 280 322 4,500 -1,200 Descending FlightAware ADS-B
Sun 11:57:06 PM 40.3480 -73.6130 73° East 279 321 4,000 -800 Descending FlightAware ADS-B
Sun 11:57:22 PM 40.3640 -73.5960 39° Northeast 279 321 3,900  Descending FlightAware ADS-B
Sun 11:57:34 PM 40.3770 -73.5860 30° Northeast 275 316 4,000 146 Climbing FlightAware ADS-B
Sun 11:58:03 PM 40.4080 -73.5640 28° Northeast 251 289 4,000  Level FlightAware ADS-B
Sun 11:58:29 PM 40.4320 -73.5460 30° Northeast 241 277 4,000  Level FlightAware ADS-B
Sun 11:58:59 PM 40.4610 -73.5230 31° Northeast 238 274 4,000  Level FlightAware ADS-B
Sun 11:59:31 PM 40.4929 -73.4998 29° Northeast 241 277 4,000  Level FlightAware ADS-B
Sun 11:59:48 PM 40.5104 -73.4874 28° Northeast 240 276 4,000 -171 Level FlightAware ADS-B
Mon 12:00:06 AM 40.5276 -73.4745 30° Northeast 237 273 3,900 -778 Descending FlightAware ADS-B
Mon 12:00:42 AM 40.5600 -73.4510 29° Northeast 233 268 3,300 -818 Descending FlightAware ADS-B
Mon 12:01:12 AM 40.5910 -73.4340 23° Northeast 232 267 3,000 -453 Descending FlightAware ADS-B
Mon 12:01:35 AM 40.6150 -73.4280 11° North 237 273 2,900  Descending FlightAware ADS-B
Mon 12:02:02 AM 40.6440 -73.4220 North 238 274 3,000 154 Climbing FlightAware ADS-B
Mon 12:02:14 AM 40.6580 -73.4190 North 238 274 3,000  Level FlightAware ADS-B
Mon 12:02:42 AM 40.6880 -73.4120 10° North 242 278 3,000  Level FlightAware ADS-B
Mon 12:03:10 AM 40.7170 -73.4210 347° North 225 259 3,000  Level FlightAware ADS-B
Mon 12:03:38 AM 40.7400 -73.4440 323° Northwest 227 261 3,000  Level FlightAware ADS-B
Mon 12:04:06 AM 40.7620 -73.4670 322° Northwest 223 257 3,000 -218 Level FlightAware ADS-B
Mon 12:04:33 AM 40.7840 -73.4910 320° Northwest 209 241 2,800 -764 Descending FlightAware ADS-B
Mon 12:05:01 AM 40.8040 -73.5130 320° Northwest 196 226 2,300 -1,091 Descending FlightAware ADS-B
Mon 12:05:17 AM 40.8090 -73.5310 290° West 190 219 2,000 -600 Descending FlightAware ADS-B
Mon 12:05:31 AM 40.8120 -73.5440 287° West 184 212 2,000  Level FlightAware ADS-B
Mon 12:05:58 AM 40.8170 -73.5740 282° West 177 204 2,000  Level FlightAware ADS-B
Mon 12:06:38 AM 40.8090 -73.6130 255° West 166 191 2,000  Level FlightAware ADS-B
Mon 12:07:02 AM 40.7990 -73.6320 235° Southwest 165 190 2,000  Level FlightAware ADS-B
Mon 12:07:14 AM 40.7910 -73.6390 214° Southwest 161 185 2,000  Level FlightAware ADS-B
Mon 12:07:43 AM 40.7720 -73.6550 213° Southwest 162 186 2,000  Level FlightAware ADS-B
Mon 12:08:09 AM 40.7550 -73.6680 210° Southwest 161 185 2,000 -107 Level FlightAware ADS-B
Mon 12:08:39 AM 40.7370 -73.6830 212° Southwest 161 185 1,900 -453 Descending FlightAware ADS-B
Mon 12:09:02 AM 40.7220 -73.6950 211° Southwest 162 186 1,600 -692 Descending FlightAware ADS-B
Mon 12:09:31 AM 40.7040 -73.7090 211° Southwest 138 159 1,300 -643 Descending FlightAware ADS-B
Mon 12:09:58 AM 40.6900 -73.7200 211° Southwest 133 153 1,000 -643 Descending FlightAware ADS-B
Mon 12:10:27 AM 40.6750 -73.7320 211° Southwest 131 151 700 -732 Descending FlightAware ADS-B
Mon 12:10:39 AM 40.6690 -73.7360 207° Southwest 130 150 500 -732 Descending FlightAware ADS-B
Mon 12:11:08 AM 40.6540 -73.7480 211° Southwest 131 151 200 -621 Descending FlightAware ADS-B
Mon 12:11:35 AM 40.6390 -73.7600 211° Southwest 125 144 -444 Descending FlightAware ADS-B

Login

Don't have an account? Register now (free) for customized features, flight alerts, and more!